sensor_id;sensor_type;location;lat;lon;timestamp;P1;durP1;ratioP1;P2;durP2;ratioP2
37655;SDS011;23498;50.958;3.124;2022-10-13T00:00:50;13.25;;;9.73;;
37655;SDS011;23498;50.958;3.124;2022-10-13T00:03:16;17.00;;;10.02;;
37655;SDS011;23498;50.958;3.124;2022-10-13T00:05:43;15.60;;;10.20;;
37655;SDS011;23498;50.958;3.124;2022-10-13T00:08:10;15.55;;;10.15;;
37655;SDS011;23498;50.958;3.124;2022-10-13T00:10:36;17.23;;;9.77;;
37655;SDS011;23498;50.958;3.124;2022-10-13T00:13:03;15.05;;;9.63;;
37655;SDS011;23498;50.958;3.124;2022-10-13T00:15:29;18.67;;;10.55;;
37655;SDS011;23498;50.958;3.124;2022-10-13T00:17:55;15.93;;;9.95;;
37655;SDS011;23498;50.958;3.124;2022-10-13T00:20:21;18.15;;;11.20;;
37655;SDS011;23498;50.958;3.124;2022-10-13T00:22:47;15.38;;;10.18;;
37655;SDS011;23498;50.958;3.124;2022-10-13T00:25:13;16.95;;;10.20;;
37655;SDS011;23498;50.958;3.124;2022-10-13T00:27:39;17.35;;;10.85;;
37655;SDS011;23498;50.958;3.124;2022-10-13T00:30:05;18.25;;;10.88;;
37655;SDS011;23498;50.958;3.124;2022-10-13T00:32:31;18.38;;;10.52;;
37655;SDS011;23498;50.958;3.124;2022-10-13T00:34:57;17.83;;;10.98;;
37655;SDS011;23498;50.958;3.124;2022-10-13T00:37:23;16.65;;;10.55;;
37655;SDS011;23498;50.958;3.124;2022-10-13T00:39:49;16.17;;;10.00;;
37655;SDS011;23498;50.958;3.124;2022-10-13T00:42:15;20.98;;;10.35;;
37655;SDS011;23498;50.958;3.124;2022-10-13T00:44:56;17.83;;;10.95;;
37655;SDS011;23498;50.958;3.124;2022-10-13T00:47:23;18.80;;;11.25;;
37655;SDS011;23498;50.958;3.124;2022-10-13T00:49:50;18.45;;;11.15;;
37655;SDS011;23498;50.958;3.124;2022-10-13T00:52:17;14.77;;;10.55;;
37655;SDS011;23498;50.958;3.124;2022-10-13T00:54:44;16.20;;;11.27;;
37655;SDS011;23498;50.958;3.124;2022-10-13T00:57:11;21.60;;;11.30;;
37655;SDS011;23498;50.958;3.124;2022-10-13T00:59:37;17.02;;;10.48;;
37655;SDS011;23498;50.958;3.124;2022-10-13T01:02:04;14.07;;;10.30;;
37655;SDS011;23498;50.958;3.124;2022-10-13T01:04:35;15.88;;;10.10;;
37655;SDS011;23498;50.958;3.124;2022-10-13T01:07:03;19.63;;;11.07;;
37655;SDS011;23498;50.958;3.124;2022-10-13T01:09:30;22.27;;;11.57;;
37655;SDS011;23498;50.958;3.124;2022-10-13T01:12:05;17.08;;;11.10;;
37655;SDS011;23498;50.958;3.124;2022-10-13T01:15:21;15.60;;;11.13;;
37655;SDS011;23498;50.958;3.124;2022-10-13T01:30:27;20.77;;;11.68;;
37655;SDS011;23498;50.958;3.124;2022-10-13T01:40:30;17.75;;;11.95;;
37655;SDS011;23498;50.958;3.124;2022-10-13T01:42:59;19.85;;;11.30;;
37655;SDS011;23498;50.958;3.124;2022-10-13T01:45:31;21.40;;;11.93;;
37655;SDS011;23498;50.958;3.124;2022-10-13T01:47:58;17.40;;;10.50;;
37655;SDS011;23498;50.958;3.124;2022-10-13T01:50:26;14.45;;;11.10;;
37655;SDS011;23498;50.958;3.124;2022-10-13T01:52:52;20.95;;;11.70;;
37655;SDS011;23498;50.958;3.124;2022-10-13T01:55:19;17.83;;;10.85;;
37655;SDS011;23498;50.958;3.124;2022-10-13T01:57:45;19.25;;;11.48;;
37655;SDS011;23498;50.958;3.124;2022-10-13T02:00:12;16.42;;;10.23;;
37655;SDS011;23498;50.958;3.124;2022-10-13T02:05:08;20.40;;;11.18;;
37655;SDS011;23498;50.958;3.124;2022-10-13T02:07:45;19.65;;;11.30;;
37655;SDS011;23498;50.958;3.124;2022-10-13T02:10:17;20.08;;;11.52;;
37655;SDS011;23498;50.958;3.124;2022-10-13T02:12:47;20.27;;;12.18;;
37655;SDS011;23498;50.958;3.124;2022-10-13T02:15:15;19.60;;;11.63;;
37655;SDS011;23498;50.958;3.124;2022-10-13T02:17:42;26.35;;;13.07;;
37655;SDS011;23498;50.958;3.124;2022-10-13T02:20:08;24.38;;;12.20;;
37655;SDS011;23498;50.958;3.124;2022-10-13T02:22:37;20.75;;;12.45;;
37655;SDS011;23498;50.958;3.124;2022-10-13T02:25:05;22.10;;;13.27;;
37655;SDS011;23498;50.958;3.124;2022-10-13T02:27:32;19.02;;;12.55;;
37655;SDS011;23498;50.958;3.124;2022-10-13T02:29:58;19.15;;;12.98;;
37655;SDS011;23498;50.958;3.124;2022-10-13T02:32:24;21.42;;;11.98;;
37655;SDS011;23498;50.958;3.124;2022-10-13T02:34:50;23.73;;;13.40;;
37655;SDS011;23498;50.958;3.124;2022-10-13T02:37:16;24.88;;;12.68;;
37655;SDS011;23498;50.958;3.124;2022-10-13T02:39:42;22.60;;;13.60;;
37655;SDS011;23498;50.958;3.124;2022-10-13T02:42:08;24.05;;;12.55;;
37655;SDS011;23498;50.958;3.124;2022-10-13T02:44:34;19.77;;;12.32;;
37655;SDS011;23498;50.958;3.124;2022-10-13T02:47:00;25.65;;;13.77;;
37655;SDS011;23498;50.958;3.124;2022-10-13T02:49:26;20.27;;;12.25;;
37655;SDS011;23498;50.958;3.124;2022-10-13T02:51:52;20.02;;;11.52;;
37655;SDS011;23498;50.958;3.124;2022-10-13T02:54:18;19.80;;;12.65;;
37655;SDS011;23498;50.958;3.124;2022-10-13T02:56:44;22.75;;;13.05;;
37655;SDS011;23498;50.958;3.124;2022-10-13T02:59:10;21.33;;;12.40;;
37655;SDS011;23498;50.958;3.124;2022-10-13T03:01:36;18.20;;;12.55;;
37655;SDS011;23498;50.958;3.124;2022-10-13T03:04:05;27.85;;;13.23;;
37655;SDS011;23498;50.958;3.124;2022-10-13T03:06:32;23.42;;;13.02;;
37655;SDS011;23498;50.958;3.124;2022-10-13T03:08:58;21.10;;;11.68;;
37655;SDS011;23498;50.958;3.124;2022-10-13T03:11:24;21.17;;;11.75;;
37655;SDS011;23498;50.958;3.124;2022-10-13T03:13:50;23.25;;;11.82;;
37655;SDS011;23498;50.958;3.124;2022-10-13T03:16:16;21.70;;;11.82;;
37655;SDS011;23498;50.958;3.124;2022-10-13T03:18:42;17.83;;;11.68;;
37655;SDS011;23498;50.958;3.124;2022-10-13T03:21:08;17.65;;;11.15;;
37655;SDS011;23498;50.958;3.124;2022-10-13T03:23:34;27.38;;;12.43;;
37655;SDS011;23498;50.958;3.124;2022-10-13T03:26:00;17.75;;;11.68;;
37655;SDS011;23498;50.958;3.124;2022-10-13T03:28:26;23.42;;;12.57;;
37655;SDS011;23498;50.958;3.124;2022-10-13T03:31:02;21.25;;;12.02;;
37655;SDS011;23498;50.958;3.124;2022-10-13T03:33:28;22.75;;;12.30;;
37655;SDS011;23498;50.958;3.124;2022-10-13T03:35:56;25.70;;;11.77;;
37655;SDS011;23498;50.958;3.124;2022-10-13T03:38:22;20.10;;;11.82;;
37655;SDS011;23498;50.958;3.124;2022-10-13T03:40:48;23.90;;;11.48;;
37655;SDS011;23498;50.958;3.124;2022-10-13T03:43:14;16.90;;;10.93;;
37655;SDS011;23498;50.958;3.124;2022-10-13T03:45:40;22.73;;;12.23;;
37655;SDS011;23498;50.958;3.124;2022-10-13T03:48:06;20.30;;;12.43;;
37655;SDS011;23498;50.958;3.124;2022-10-13T03:50:32;19.15;;;10.93;;
37655;SDS011;23498;50.958;3.124;2022-10-13T03:52:58;20.90;;;11.73;;
37655;SDS011;23498;50.958;3.124;2022-10-13T03:55:24;22.80;;;11.63;;
37655;SDS011;23498;50.958;3.124;2022-10-13T03:57:50;22.00;;;11.65;;
37655;SDS011;23498;50.958;3.124;2022-10-13T04:00:16;24.05;;;11.93;;
37655;SDS011;23498;50.958;3.124;2022-10-13T04:02:42;17.73;;;11.20;;
37655;SDS011;23498;50.958;3.124;2022-10-13T04:05:08;20.98;;;11.00;;
37655;SDS011;23498;50.958;3.124;2022-10-13T04:07:34;19.55;;;11.43;;
37655;SDS011;23498;50.958;3.124;2022-10-13T04:10:00;19.45;;;11.65;;
37655;SDS011;23498;50.958;3.124;2022-10-13T04:12:26;17.67;;;11.70;;
37655;SDS011;23498;50.958;3.124;2022-10-13T04:14:52;21.45;;;12.02;;
37655;SDS011;23498;50.958;3.124;2022-10-13T04:17:18;16.77;;;11.32;;
37655;SDS011;23498;50.958;3.124;2022-10-13T04:19:44;21.25;;;11.50;;
37655;SDS011;23498;50.958;3.124;2022-10-13T04:22:10;21.38;;;12.23;;
37655;SDS011;23498;50.958;3.124;2022-10-13T04:24:36;19.67;;;11.73;;
37655;SDS011;23498;50.958;3.124;2022-10-13T04:27:02;22.30;;;11.88;;
37655;SDS011;23498;50.958;3.124;2022-10-13T04:29:28;19.00;;;11.95;;
37655;SDS011;23498;50.958;3.124;2022-10-13T04:31:54;19.58;;;11.50;;
37655;SDS011;23498;50.958;3.124;2022-10-13T04:34:20;21.33;;;12.25;;
37655;SDS011;23498;50.958;3.124;2022-10-13T04:36:48;21.02;;;11.68;;
37655;SDS011;23498;50.958;3.124;2022-10-13T04:39:15;21.92;;;12.18;;
37655;SDS011;23498;50.958;3.124;2022-10-13T04:41:42;20.20;;;12.20;;
37655;SDS011;23498;50.958;3.124;2022-10-13T04:44:08;19.45;;;12.90;;
37655;SDS011;23498;50.958;3.124;2022-10-13T04:46:34;21.65;;;12.25;;
37655;SDS011;23498;50.958;3.124;2022-10-13T04:49:00;22.58;;;13.10;;
37655;SDS011;23498;50.958;3.124;2022-10-13T04:51:26;20.02;;;12.55;;
37655;SDS011;23498;50.958;3.124;2022-10-13T04:53:53;20.80;;;13.40;;
37655;SDS011;23498;50.958;3.124;2022-10-13T04:56:19;24.13;;;12.32;;
37655;SDS011;23498;50.958;3.124;2022-10-13T04:58:45;22.88;;;12.60;;
37655;SDS011;23498;50.958;3.124;2022-10-13T05:01:12;22.45;;;13.25;;
37655;SDS011;23498;50.958;3.124;2022-10-13T05:03:38;21.98;;;12.18;;
37655;SDS011;23498;50.958;3.124;2022-10-13T05:06:04;18.65;;;12.18;;
37655;SDS011;23498;50.958;3.124;2022-10-13T05:08:30;23.83;;;12.00;;
37655;SDS011;23498;50.958;3.124;2022-10-13T05:11:01;19.50;;;11.90;;
37655;SDS011;23498;50.958;3.124;2022-10-13T05:13:27;22.23;;;12.38;;
37655;SDS011;23498;50.958;3.124;2022-10-13T05:15:54;18.77;;;10.75;;
37655;SDS011;23498;50.958;3.124;2022-10-13T05:18:20;16.83;;;11.23;;
37655;SDS011;23498;50.958;3.124;2022-10-13T05:20:46;20.00;;;12.60;;
37655;SDS011;23498;50.958;3.124;2022-10-13T05:23:12;18.42;;;11.32;;
37655;SDS011;23498;50.958;3.124;2022-10-13T05:25:39;20.67;;;11.25;;
37655;SDS011;23498;50.958;3.124;2022-10-13T05:28:05;19.85;;;11.65;;
37655;SDS011;23498;50.958;3.124;2022-10-13T05:30:32;19.05;;;12.05;;
37655;SDS011;23498;50.958;3.124;2022-10-13T05:32:58;20.38;;;12.43;;
37655;SDS011;23498;50.958;3.124;2022-10-13T05:35:24;21.52;;;12.95;;
37655;SDS011;23498;50.958;3.124;2022-10-13T05:37:50;20.33;;;11.40;;
37655;SDS011;23498;50.958;3.124;2022-10-13T05:40:16;20.25;;;12.07;;
37655;SDS011;23498;50.958;3.124;2022-10-13T05:42:42;20.33;;;12.32;;
37655;SDS011;23498;50.958;3.124;2022-10-13T05:45:09;18.95;;;11.75;;
37655;SDS011;23498;50.958;3.124;2022-10-13T05:47:35;21.15;;;11.90;;
37655;SDS011;23498;50.958;3.124;2022-10-13T05:50:01;18.50;;;11.55;;
37655;SDS011;23498;50.958;3.124;2022-10-13T05:52:28;19.70;;;11.38;;
37655;SDS011;23498;50.958;3.124;2022-10-13T05:54:56;23.88;;;12.60;;
37655;SDS011;23498;50.958;3.124;2022-10-13T05:57:29;19.88;;;12.27;;
37655;SDS011;23498;50.958;3.124;2022-10-13T06:00:04;18.77;;;11.55;;
37655;SDS011;23498;50.958;3.124;2022-10-13T06:02:31;20.88;;;11.63;;
37655;SDS011;23498;50.958;3.124;2022-10-13T06:04:59;21.77;;;11.32;;
37655;SDS011;23498;50.958;3.124;2022-10-13T06:07:25;16.73;;;10.80;;
37655;SDS011;23498;50.958;3.124;2022-10-13T06:09:51;19.73;;;12.55;;
37655;SDS011;23498;50.958;3.124;2022-10-13T06:12:17;20.42;;;12.00;;
37655;SDS011;23498;50.958;3.124;2022-10-13T06:14:43;21.67;;;11.70;;
37655;SDS011;23498;50.958;3.124;2022-10-13T06:17:09;24.83;;;12.27;;
37655;SDS011;23498;50.958;3.124;2022-10-13T06:19:35;19.10;;;11.98;;
37655;SDS011;23498;50.958;3.124;2022-10-13T06:22:01;20.20;;;12.07;;
37655;SDS011;23498;50.958;3.124;2022-10-13T06:24:27;21.33;;;12.57;;
37655;SDS011;23498;50.958;3.124;2022-10-13T06:26:53;20.50;;;12.82;;
37655;SDS011;23498;50.958;3.124;2022-10-13T06:29:19;18.40;;;12.00;;
37655;SDS011;23498;50.958;3.124;2022-10-13T06:31:45;20.05;;;12.88;;
37655;SDS011;23498;50.958;3.124;2022-10-13T06:34:11;17.98;;;11.30;;
37655;SDS011;23498;50.958;3.124;2022-10-13T06:36:37;22.92;;;12.02;;
37655;SDS011;23498;50.958;3.124;2022-10-13T06:39:03;19.67;;;12.07;;
37655;SDS011;23498;50.958;3.124;2022-10-13T06:41:29;17.80;;;11.57;;
37655;SDS011;23498;50.958;3.124;2022-10-13T06:43:55;15.52;;;11.25;;
37655;SDS011;23498;50.958;3.124;2022-10-13T06:46:21;17.63;;;12.32;;
37655;SDS011;23498;50.958;3.124;2022-10-13T06:48:48;20.48;;;12.00;;
37655;SDS011;23498;50.958;3.124;2022-10-13T06:51:15;20.85;;;11.70;;
37655;SDS011;23498;50.958;3.124;2022-10-13T06:53:41;20.50;;;11.80;;
37655;SDS011;23498;50.958;3.124;2022-10-13T06:56:07;23.17;;;11.40;;
37655;SDS011;23498;50.958;3.124;2022-10-13T06:58:34;21.17;;;11.65;;
37655;SDS011;23498;50.958;3.124;2022-10-13T07:01:00;17.48;;;11.95;;
37655;SDS011;23498;50.958;3.124;2022-10-13T07:03:26;22.80;;;11.55;;
37655;SDS011;23498;50.958;3.124;2022-10-13T07:05:52;18.65;;;11.18;;
37655;SDS011;23498;50.958;3.124;2022-10-13T07:08:18;20.58;;;11.63;;
37655;SDS011;23498;50.958;3.124;2022-10-13T07:10:45;19.45;;;11.38;;
37655;SDS011;23498;50.958;3.124;2022-10-13T07:13:11;19.08;;;11.05;;
37655;SDS011;23498;50.958;3.124;2022-10-13T07:15:37;23.20;;;11.80;;
37655;SDS011;23498;50.958;3.124;2022-10-13T07:18:03;17.90;;;10.57;;
37655;SDS011;23498;50.958;3.124;2022-10-13T07:20:29;19.50;;;10.60;;
37655;SDS011;23498;50.958;3.124;2022-10-13T07:22:55;19.13;;;10.80;;
37655;SDS011;23498;50.958;3.124;2022-10-13T07:25:21;17.73;;;10.27;;
37655;SDS011;23498;50.958;3.124;2022-10-13T07:27:47;18.02;;;10.23;;
37655;SDS011;23498;50.958;3.124;2022-10-13T07:30:14;18.80;;;10.40;;
37655;SDS011;23498;50.958;3.124;2022-10-13T07:32:40;18.02;;;10.23;;
37655;SDS011;23498;50.958;3.124;2022-10-13T07:35:09;19.98;;;10.68;;
37655;SDS011;23498;50.958;3.124;2022-10-13T07:37:36;16.77;;;11.02;;
37655;SDS011;23498;50.958;3.124;2022-10-13T07:40:03;15.43;;;9.98;;
37655;SDS011;23498;50.958;3.124;2022-10-13T07:42:29;16.58;;;10.50;;
37655;SDS011;23498;50.958;3.124;2022-10-13T07:44:55;18.63;;;10.48;;
37655;SDS011;23498;50.958;3.124;2022-10-13T07:47:21;19.88;;;10.30;;
37655;SDS011;23498;50.958;3.124;2022-10-13T07:49:47;16.90;;;10.40;;
37655;SDS011;23498;50.958;3.124;2022-10-13T07:52:13;14.85;;;9.68;;
37655;SDS011;23498;50.958;3.124;2022-10-13T07:54:39;14.80;;;10.32;;
37655;SDS011;23498;50.958;3.124;2022-10-13T07:57:05;19.38;;;10.55;;
37655;SDS011;23498;50.958;3.124;2022-10-13T07:59:32;15.98;;;9.93;;
37655;SDS011;23498;50.958;3.124;2022-10-13T08:01:58;15.90;;;10.07;;
37655;SDS011;23498;50.958;3.124;2022-10-13T08:04:30;20.20;;;10.88;;
37655;SDS011;23498;50.958;3.124;2022-10-13T08:06:56;14.43;;;10.18;;
37655;SDS011;23498;50.958;3.124;2022-10-13T08:09:23;17.83;;;11.00;;
37655;SDS011;23498;50.958;3.124;2022-10-13T08:11:49;17.63;;;11.40;;
37655;SDS011;23498;50.958;3.124;2022-10-13T08:14:15;17.33;;;10.73;;
37655;SDS011;23498;50.958;3.124;2022-10-13T08:16:41;24.40;;;11.88;;
37655;SDS011;23498;50.958;3.124;2022-10-13T08:19:10;18.98;;;11.27;;
37655;SDS011;23498;50.958;3.124;2022-10-13T08:21:36;16.38;;;10.50;;
37655;SDS011;23498;50.958;3.124;2022-10-13T08:24:03;20.08;;;11.23;;
37655;SDS011;23498;50.958;3.124;2022-10-13T08:26:29;18.15;;;11.52;;
37655;SDS011;23498;50.958;3.124;2022-10-13T08:28:55;17.20;;;11.38;;
37655;SDS011;23498;50.958;3.124;2022-10-13T08:31:21;18.73;;;11.73;;
37655;SDS011;23498;50.958;3.124;2022-10-13T08:33:47;19.00;;;11.80;;
37655;SDS011;23498;50.958;3.124;2022-10-13T08:36:14;22.42;;;12.32;;
37655;SDS011;23498;50.958;3.124;2022-10-13T08:38:40;22.02;;;11.07;;
37655;SDS011;23498;50.958;3.124;2022-10-13T08:41:12;17.95;;;11.55;;
37655;SDS011;23498;50.958;3.124;2022-10-13T08:43:39;21.83;;;12.70;;
37655;SDS011;23498;50.958;3.124;2022-10-13T08:46:07;22.45;;;11.88;;
37655;SDS011;23498;50.958;3.124;2022-10-13T08:48:34;21.73;;;12.07;;
37655;SDS011;23498;50.958;3.124;2022-10-13T08:51:04;18.77;;;12.50;;
37655;SDS011;23498;50.958;3.124;2022-10-13T08:58:36;20.00;;;13.45;;
37655;SDS011;23498;50.958;3.124;2022-10-13T09:03:47;18.55;;;12.38;;
37655;SDS011;23498;50.958;3.124;2022-10-13T09:06:14;19.85;;;13.85;;
37655;SDS011;23498;50.958;3.124;2022-10-13T09:08:43;21.15;;;14.23;;
37655;SDS011;23498;50.958;3.124;2022-10-13T09:11:11;21.83;;;14.23;;
37655;SDS011;23498;50.958;3.124;2022-10-13T09:13:37;25.45;;;14.18;;
37655;SDS011;23498;50.958;3.124;2022-10-13T09:16:03;24.50;;;14.02;;
37655;SDS011;23498;50.958;3.124;2022-10-13T09:18:30;24.25;;;15.15;;
37655;SDS011;23498;50.958;3.124;2022-10-13T09:21:07;27.35;;;14.10;;
37655;SDS011;23498;50.958;3.124;2022-10-13T09:23:33;29.45;;;15.13;;
37655;SDS011;23498;50.958;3.124;2022-10-13T09:25:59;23.98;;;14.35;;
37655;SDS011;23498;50.958;3.124;2022-10-13T09:28:31;22.40;;;14.60;;
37655;SDS011;23498;50.958;3.124;2022-10-13T09:31:02;21.35;;;14.50;;
37655;SDS011;23498;50.958;3.124;2022-10-13T09:33:28;24.70;;;16.00;;
37655;SDS011;23498;50.958;3.124;2022-10-13T09:38:24;20.48;;;14.38;;
37655;SDS011;23498;50.958;3.124;2022-10-13T09:40:55;26.58;;;16.10;;
37655;SDS011;23498;50.958;3.124;2022-10-13T09:43:36;23.63;;;14.68;;
37655;SDS011;23498;50.958;3.124;2022-10-13T09:46:10;20.35;;;14.80;;
37655;SDS011;23498;50.958;3.124;2022-10-13T09:48:36;22.27;;;14.88;;
37655;SDS011;23498;50.958;3.124;2022-10-13T09:51:09;24.52;;;15.13;;
37655;SDS011;23498;50.958;3.124;2022-10-13T09:53:47;22.40;;;14.40;;
37655;SDS011;23498;50.958;3.124;2022-10-13T09:58:43;27.83;;;15.00;;
37655;SDS011;23498;50.958;3.124;2022-10-13T10:01:15;24.92;;;14.38;;
37655;SDS011;23498;50.958;3.124;2022-10-13T10:03:45;24.90;;;14.13;;
37655;SDS011;23498;50.958;3.124;2022-10-13T10:06:11;18.48;;;12.75;;
37655;SDS011;23498;50.958;3.124;2022-10-13T10:08:51;21.02;;;13.63;;
37655;SDS011;23498;50.958;3.124;2022-10-13T10:11:27;20.70;;;13.43;;
37655;SDS011;23498;50.958;3.124;2022-10-13T10:13:54;25.25;;;16.42;;
37655;SDS011;23498;50.958;3.124;2022-10-13T10:19:10;23.15;;;17.48;;
37655;SDS011;23498;50.958;3.124;2022-10-13T10:22:07;26.15;;;17.80;;
37655;SDS011;23498;50.958;3.124;2022-10-13T10:26:57;26.50;;;19.85;;
37655;SDS011;23498;50.958;3.124;2022-10-13T10:34:42;26.00;;;20.52;;
37655;SDS011;23498;50.958;3.124;2022-10-13T10:39:46;28.58;;;19.55;;
37655;SDS011;23498;50.958;3.124;2022-10-13T10:42:19;24.67;;;17.90;;
37655;SDS011;23498;50.958;3.124;2022-10-13T10:44:48;25.25;;;16.65;;
37655;SDS011;23498;50.958;3.124;2022-10-13T10:49:44;23.05;;;14.63;;
37655;SDS011;23498;50.958;3.124;2022-10-13T10:52:15;20.33;;;14.25;;
37655;SDS011;23498;50.958;3.124;2022-10-13T10:59:48;19.73;;;14.07;;
37655;SDS011;23498;50.958;3.124;2022-10-13T11:04:48;19.60;;;13.85;;
37655;SDS011;23498;50.958;3.124;2022-10-13T11:17:30;20.92;;;14.88;;
37655;SDS011;23498;50.958;3.124;2022-10-13T11:19:57;24.33;;;16.27;;
37655;SDS011;23498;50.958;3.124;2022-10-13T11:22:24;25.65;;;15.68;;
37655;SDS011;23498;50.958;3.124;2022-10-13T11:24:52;22.65;;;15.40;;
37655;SDS011;23498;50.958;3.124;2022-10-13T11:27:25;21.67;;;15.90;;
37655;SDS011;23498;50.958;3.124;2022-10-13T11:29:53;22.42;;;16.08;;
37655;SDS011;23498;50.958;3.124;2022-10-13T11:37:46;24.88;;;16.13;;
37655;SDS011;23498;50.958;3.124;2022-10-13T11:40:27;25.42;;;16.98;;
37655;SDS011;23498;50.958;3.124;2022-10-13T11:43:11;22.77;;;16.80;;
37655;SDS011;23498;50.958;3.124;2022-10-13T11:53:19;25.65;;;17.17;;
37655;SDS011;23498;50.958;3.124;2022-10-13T11:55:47;23.05;;;16.65;;
37655;SDS011;23498;50.958;3.124;2022-10-13T11:58:16;31.08;;;17.48;;
37655;SDS011;23498;50.958;3.124;2022-10-13T12:00:50;31.45;;;17.67;;
37655;SDS011;23498;50.958;3.124;2022-10-13T12:03:21;25.52;;;17.88;;
37655;SDS011;23498;50.958;3.124;2022-10-13T12:05:47;26.30;;;18.10;;
37655;SDS011;23498;50.958;3.124;2022-10-13T12:08:14;23.30;;;17.42;;
37655;SDS011;23498;50.958;3.124;2022-10-13T12:10:40;25.27;;;17.98;;
37655;SDS011;23498;50.958;3.124;2022-10-13T12:13:06;23.13;;;17.27;;
37655;SDS011;23498;50.958;3.124;2022-10-13T12:15:36;23.35;;;16.88;;
37655;SDS011;23498;50.958;3.124;2022-10-13T12:18:18;27.40;;;17.52;;
37655;SDS011;23498;50.958;3.124;2022-10-13T12:20:50;24.58;;;17.23;;
37655;SDS011;23498;50.958;3.124;2022-10-13T12:23:16;23.50;;;16.10;;
37655;SDS011;23498;50.958;3.124;2022-10-13T12:25:45;22.95;;;16.42;;
37655;SDS011;23498;50.958;3.124;2022-10-13T12:28:15;24.33;;;16.33;;
37655;SDS011;23498;50.958;3.124;2022-10-13T12:30:43;23.08;;;15.40;;
37655;SDS011;23498;50.958;3.124;2022-10-13T12:33:27;22.58;;;16.17;;
37655;SDS011;23498;50.958;3.124;2022-10-13T12:35:53;27.48;;;19.58;;
37655;SDS011;23498;50.958;3.124;2022-10-13T12:38:19;24.58;;;15.35;;
37655;SDS011;23498;50.958;3.124;2022-10-13T12:40:47;25.33;;;15.20;;
37655;SDS011;23498;50.958;3.124;2022-10-13T12:43:17;23.00;;;16.73;;
37655;SDS011;23498;50.958;3.124;2022-10-13T12:45:44;23.33;;;15.25;;
37655;SDS011;23498;50.958;3.124;2022-10-13T12:48:28;21.77;;;16.45;;
37655;SDS011;23498;50.958;3.124;2022-10-13T12:50:54;23.98;;;16.35;;
37655;SDS011;23498;50.958;3.124;2022-10-13T12:53:26;22.00;;;16.13;;
37655;SDS011;23498;50.958;3.124;2022-10-13T12:55:57;26.48;;;17.02;;
37655;SDS011;23498;50.958;3.124;2022-10-13T12:58:28;24.45;;;16.15;;
37655;SDS011;23498;50.958;3.124;2022-10-13T13:03:27;26.30;;;16.08;;
37655;SDS011;23498;50.958;3.124;2022-10-13T13:08:35;23.02;;;14.85;;
37655;SDS011;23498;50.958;3.124;2022-10-13T13:11:02;20.75;;;14.00;;
37655;SDS011;23498;50.958;3.124;2022-10-13T13:13:29;24.05;;;15.05;;
37655;SDS011;23498;50.958;3.124;2022-10-13T13:18:41;21.63;;;14.55;;
37655;SDS011;23498;50.958;3.124;2022-10-13T13:21:10;33.72;;;15.23;;
37655;SDS011;23498;50.958;3.124;2022-10-13T13:23:36;24.20;;;13.15;;
37655;SDS011;23498;50.958;3.124;2022-10-13T13:26:05;20.75;;;12.73;;
37655;SDS011;23498;50.958;3.124;2022-10-13T13:28:36;20.20;;;12.38;;
37655;SDS011;23498;50.958;3.124;2022-10-13T13:31:02;15.75;;;10.73;;
37655;SDS011;23498;50.958;3.124;2022-10-13T13:33:28;17.42;;;11.88;;
37655;SDS011;23498;50.958;3.124;2022-10-13T13:35:54;23.25;;;11.23;;
37655;SDS011;23498;50.958;3.124;2022-10-13T13:38:21;17.20;;;11.77;;
37655;SDS011;23498;50.958;3.124;2022-10-13T13:40:47;16.15;;;11.27;;
37655;SDS011;23498;50.958;3.124;2022-10-13T13:43:13;21.35;;;12.50;;
37655;SDS011;23498;50.958;3.124;2022-10-13T13:45:39;20.90;;;13.93;;
37655;SDS011;23498;50.958;3.124;2022-10-13T13:48:05;24.20;;;15.43;;
37655;SDS011;23498;50.958;3.124;2022-10-13T13:50:34;21.65;;;16.02;;
37655;SDS011;23498;50.958;3.124;2022-10-13T13:53:00;22.60;;;15.90;;
37655;SDS011;23498;50.958;3.124;2022-10-13T13:55:27;23.58;;;16.80;;
37655;SDS011;23498;50.958;3.124;2022-10-13T13:57:54;23.25;;;16.95;;
37655;SDS011;23498;50.958;3.124;2022-10-13T14:00:20;26.00;;;17.98;;
37655;SDS011;23498;50.958;3.124;2022-10-13T14:02:46;27.50;;;18.95;;
37655;SDS011;23498;50.958;3.124;2022-10-13T14:05:13;29.45;;;19.15;;
37655;SDS011;23498;50.958;3.124;2022-10-13T14:07:39;24.10;;;17.70;;
37655;SDS011;23498;50.958;3.124;2022-10-13T14:10:06;30.50;;;18.23;;
37655;SDS011;23498;50.958;3.124;2022-10-13T14:12:33;24.48;;;18.63;;
37655;SDS011;23498;50.958;3.124;2022-10-13T14:14:59;23.23;;;18.88;;
37655;SDS011;23498;50.958;3.124;2022-10-13T14:20:42;23.67;;;17.40;;
37655;SDS011;23498;50.958;3.124;2022-10-13T14:23:08;21.90;;;17.15;;
37655;SDS011;23498;50.958;3.124;2022-10-13T14:25:36;23.70;;;17.25;;
37655;SDS011;23498;50.958;3.124;2022-10-13T14:28:02;25.48;;;17.35;;
37655;SDS011;23498;50.958;3.124;2022-10-13T14:33:22;22.27;;;16.83;;
37655;SDS011;23498;50.958;3.124;2022-10-13T14:36:03;24.50;;;18.15;;
37655;SDS011;23498;50.958;3.124;2022-10-13T14:38:30;26.90;;;19.63;;
37655;SDS011;23498;50.958;3.124;2022-10-13T14:40:59;24.00;;;17.20;;
37655;SDS011;23498;50.958;3.124;2022-10-13T14:43:26;23.13;;;17.08;;
37655;SDS011;23498;50.958;3.124;2022-10-13T14:45:52;21.67;;;16.95;;
37655;SDS011;23498;50.958;3.124;2022-10-13T14:55:16;24.60;;;17.45;;
37655;SDS011;23498;50.958;3.124;2022-10-13T14:57:42;22.98;;;17.25;;
37655;SDS011;23498;50.958;3.124;2022-10-13T15:12:44;30.38;;;19.48;;
37655;SDS011;23498;50.958;3.124;2022-10-13T15:15:11;24.33;;;18.38;;
37655;SDS011;23498;50.958;3.124;2022-10-13T15:17:37;24.85;;;18.55;;
37655;SDS011;23498;50.958;3.124;2022-10-13T15:20:03;25.08;;;18.38;;
37655;SDS011;23498;50.958;3.124;2022-10-13T15:22:29;24.40;;;18.65;;
37655;SDS011;23498;50.958;3.124;2022-10-13T15:24:56;27.15;;;21.00;;
37655;SDS011;23498;50.958;3.124;2022-10-13T15:27:22;24.67;;;17.98;;
37655;SDS011;23498;50.958;3.124;2022-10-13T15:30:05;24.13;;;18.13;;
37655;SDS011;23498;50.958;3.124;2022-10-13T15:32:52;26.25;;;20.00;;
37655;SDS011;23498;50.958;3.124;2022-10-13T15:35:18;25.17;;;19.77;;
37655;SDS011;23498;50.958;3.124;2022-10-13T15:37:44;28.48;;;19.83;;
37655;SDS011;23498;50.958;3.124;2022-10-13T15:40:10;29.15;;;21.35;;
37655;SDS011;23498;50.958;3.124;2022-10-13T15:42:38;29.77;;;20.90;;
37655;SDS011;23498;50.958;3.124;2022-10-13T15:48:24;30.17;;;20.42;;
37655;SDS011;23498;50.958;3.124;2022-10-13T15:53:58;23.13;;;17.27;;
37655;SDS011;23498;50.958;3.124;2022-10-13T15:56:24;24.92;;;18.30;;
37655;SDS011;23498;50.958;3.124;2022-10-13T15:58:50;26.90;;;19.23;;
37655;SDS011;23498;50.958;3.124;2022-10-13T16:01:16;26.77;;;18.90;;
37655;SDS011;23498;50.958;3.124;2022-10-13T16:03:42;26.58;;;19.75;;
37655;SDS011;23498;50.958;3.124;2022-10-13T16:06:08;31.95;;;20.63;;
37655;SDS011;23498;50.958;3.124;2022-10-13T16:08:39;25.40;;;20.85;;
37655;SDS011;23498;50.958;3.124;2022-10-13T16:11:06;25.08;;;20.20;;
37655;SDS011;23498;50.958;3.124;2022-10-13T16:13:32;23.65;;;19.63;;
37655;SDS011;23498;50.958;3.124;2022-10-13T16:15:59;27.00;;;20.60;;
37655;SDS011;23498;50.958;3.124;2022-10-13T16:18:31;27.63;;;20.75;;
37655;SDS011;23498;50.958;3.124;2022-10-13T16:20:58;23.83;;;19.67;;
37655;SDS011;23498;50.958;3.124;2022-10-13T16:23:24;26.05;;;20.33;;
37655;SDS011;23498;50.958;3.124;2022-10-13T16:29:19;24.40;;;19.95;;